createdAt,value
2023-12-30T00:00:18.121Z,16.70
2023-12-30T00:02:49.378Z,15.70
2023-12-30T00:05:17.758Z,15.80
2023-12-30T00:07:45.673Z,16.50
2023-12-30T00:10:13.537Z,16.60
2023-12-30T00:12:41.186Z,15.50
2023-12-30T00:15:09.259Z,15.20
2023-12-30T00:17:37.111Z,15.20
2023-12-30T00:20:05.443Z,15.30
2023-12-30T00:22:33.143Z,14.30
2023-12-30T00:25:00.882Z,15.20
2023-12-30T00:27:28.443Z,15.40
2023-12-30T00:29:56.014Z,15.80
2023-12-30T00:32:23.608Z,16.00
2023-12-30T00:34:51.235Z,16.30
2023-12-30T00:37:21.516Z,17.80
2023-12-30T00:39:49.549Z,18.20
2023-12-30T00:42:17.286Z,17.90
2023-12-30T00:44:44.850Z,17.50
2023-12-30T00:47:12.805Z,16.60
2023-12-30T00:49:40.579Z,16.10
2023-12-30T00:52:08.140Z,17.50
2023-12-30T00:54:41.111Z,18.90
2023-12-30T00:57:15.288Z,17.70
2023-12-30T00:59:43.582Z,18.00
2023-12-30T01:02:11.140Z,17.90
2023-12-30T01:04:38.785Z,16.00
2023-12-30T01:07:06.593Z,16.60
2023-12-30T01:09:34.775Z,16.80
2023-12-30T01:12:02.407Z,16.90
2023-12-30T01:14:30.462Z,18.70
2023-12-30T01:16:58.065Z,19.20
2023-12-30T01:19:26.209Z,18.00
2023-12-30T01:21:54.159Z,18.60
2023-12-30T01:24:21.805Z,18.20
2023-12-30T01:26:49.794Z,17.60
2023-12-30T01:29:17.365Z,16.60
2023-12-30T01:31:44.978Z,17.50
2023-12-30T01:34:13.092Z,17.80
2023-12-30T01:36:40.764Z,16.90
2023-12-30T01:39:08.309Z,17.50
2023-12-30T01:41:36.333Z,17.70
2023-12-30T01:44:04.006Z,17.30
2023-12-30T01:46:31.709Z,17.80
2023-12-30T01:48:59.709Z,17.60
2023-12-30T01:51:27.410Z,17.70
2023-12-30T01:53:54.994Z,18.70
2023-12-30T01:56:23.046Z,15.90
2023-12-30T01:58:51.487Z,17.00
2023-12-30T02:01:19.175Z,16.70
2023-12-30T02:03:46.814Z,16.50
2023-12-30T02:06:14.565Z,16.70
2023-12-30T02:08:42.179Z,17.50
2023-12-30T02:11:09.774Z,16.90
2023-12-30T02:13:37.518Z,15.30
2023-12-30T02:16:05.463Z,14.70
2023-12-30T02:18:33.977Z,13.80
2023-12-30T02:21:01.602Z,14.50
2023-12-30T02:23:29.174Z,14.90
2023-12-30T02:25:56.795Z,14.90
2023-12-30T02:28:24.432Z,14.50
2023-12-30T02:30:52.059Z,15.80
2023-12-30T02:33:19.977Z,14.00
2023-12-30T02:35:48.404Z,12.10
2023-12-30T02:38:15.992Z,13.30
2023-12-30T02:40:43.519Z,13.20
2023-12-30T02:43:11.150Z,12.80
2023-12-30T02:45:38.695Z,14.60
2023-12-30T02:48:06.801Z,14.40
2023-12-30T02:50:34.734Z,12.90
2023-12-30T02:53:03.009Z,12.50
2023-12-30T02:55:30.760Z,13.90
2023-12-30T02:57:59.651Z,11.90
2023-12-30T03:00:28.182Z,12.40
2023-12-30T03:02:55.749Z,12.10
2023-12-30T03:05:23.426Z,12.70
2023-12-30T03:07:51.010Z,11.60
2023-12-30T03:10:18.700Z,12.10
2023-12-30T03:12:46.376Z,13.50
2023-12-30T03:15:14.433Z,13.20
2023-12-30T03:17:42.712Z,12.50
2023-12-30T03:20:11.703Z,13.20
2023-12-30T03:22:39.441Z,14.30
2023-12-30T03:25:08.085Z,13.20
2023-12-30T03:27:37.528Z,13.40
2023-12-30T03:30:05.833Z,13.00
2023-12-30T03:32:33.847Z,12.10
2023-12-30T03:35:01.648Z,13.10
2023-12-30T03:37:29.302Z,11.70
2023-12-30T03:39:56.886Z,11.60
2023-12-30T03:42:24.592Z,12.00
2023-12-30T03:44:52.257Z,12.50
2023-12-30T03:47:20.210Z,13.50
2023-12-30T03:49:47.990Z,13.50
2023-12-30T03:52:15.628Z,13.60
2023-12-30T03:54:44.748Z,13.80
2023-12-30T03:57:14.453Z,14.60
2023-12-30T03:59:42.044Z,14.00
2023-12-30T04:02:09.627Z,13.10
2023-12-30T04:04:37.686Z,14.20
2023-12-30T04:07:05.433Z,11.70
2023-12-30T04:09:33.005Z,12.70
2023-12-30T04:12:00.607Z,12.70
2023-12-30T04:14:28.217Z,13.10
2023-12-30T04:16:55.955Z,12.60
2023-12-30T04:19:25.450Z,12.70
2023-12-30T04:21:53.112Z,13.20
2023-12-30T04:24:20.691Z,13.40
2023-12-30T04:26:48.319Z,12.80
2023-12-30T04:29:15.840Z,13.70
2023-12-30T04:31:43.486Z,13.60
2023-12-30T04:34:11.282Z,14.00
2023-12-30T04:36:39.084Z,11.50
2023-12-30T04:39:07.250Z,12.90
2023-12-30T04:41:34.905Z,12.90
2023-12-30T04:44:02.658Z,12.20
2023-12-30T04:46:30.202Z,13.40
2023-12-30T04:48:57.910Z,12.50
2023-12-30T04:51:25.510Z,12.40
2023-12-30T04:53:53.061Z,12.30
2023-12-30T04:56:20.959Z,12.20
2023-12-30T04:58:48.546Z,12.20
2023-12-30T05:01:16.491Z,13.50
2023-12-30T05:03:44.329Z,12.50
2023-12-30T05:06:22.773Z,12.20
2023-12-30T05:08:54.311Z,14.10
2023-12-30T05:11:24.919Z,13.90
2023-12-30T05:13:52.625Z,13.30
2023-12-30T05:16:20.259Z,14.10
2023-12-30T05:18:47.859Z,13.10
2023-12-30T05:21:16.104Z,12.10
2023-12-30T05:23:43.983Z,13.20
2023-12-30T05:26:13.583Z,12.80
2023-12-30T05:28:41.264Z,12.90
2023-12-30T05:31:09.108Z,13.40
2023-12-30T05:33:36.834Z,12.30
2023-12-30T05:36:04.590Z,11.20
2023-12-30T05:38:32.168Z,12.90
2023-12-30T05:40:59.861Z,12.60
2023-12-30T05:43:27.693Z,11.30
2023-12-30T05:45:55.462Z,14.10
2023-12-30T05:48:23.126Z,12.80
2023-12-30T05:50:50.679Z,11.80
2023-12-30T05:53:18.267Z,12.40
2023-12-30T05:55:45.786Z,11.80
2023-12-30T05:58:13.497Z,12.80
2023-12-30T06:00:41.239Z,12.10
2023-12-30T06:03:09.391Z,13.20
2023-12-30T06:05:37.237Z,14.50
2023-12-30T06:08:05.533Z,13.50
2023-12-30T06:10:33.246Z,11.50
2023-12-30T06:13:01.004Z,13.80
2023-12-30T06:15:28.777Z,14.50
2023-12-30T06:17:56.444Z,13.50
2023-12-30T06:20:24.606Z,12.70
2023-12-30T06:22:52.273Z,12.80
2023-12-30T06:25:19.907Z,12.20
2023-12-30T06:27:47.494Z,11.30
2023-12-30T06:30:15.485Z,11.40
2023-12-30T06:32:43.221Z,11.00
2023-12-30T06:35:10.830Z,11.10
2023-12-30T06:37:38.652Z,11.70
2023-12-30T06:40:07.116Z,11.10
2023-12-30T06:42:34.772Z,10.50
2023-12-30T06:45:02.331Z,9.80
2023-12-30T06:47:29.879Z,11.10
2023-12-30T06:49:57.700Z,12.60
2023-12-30T06:52:25.387Z,11.60
2023-12-30T06:55:02.732Z,11.10
2023-12-30T06:57:38.177Z,10.60
2023-12-30T07:00:07.161Z,10.70
2023-12-30T07:02:35.426Z,11.70
2023-12-30T07:05:03.097Z,10.50
2023-12-30T07:07:30.692Z,10.90
2023-12-30T07:09:58.335Z,12.30
2023-12-30T07:12:25.988Z,11.20
2023-12-30T07:14:53.532Z,10.50
2023-12-30T07:17:21.209Z,11.60
2023-12-30T07:19:48.933Z,10.10
2023-12-30T07:22:20.392Z,9.70
2023-12-30T07:24:50.958Z,8.80
2023-12-30T07:27:18.619Z,8.40
2023-12-30T07:29:46.172Z,9.80
2023-12-30T07:32:13.812Z,10.10
2023-12-30T07:34:41.548Z,9.80
2023-12-30T07:37:09.173Z,10.90
2023-12-30T07:39:36.817Z,10.00
2023-12-30T07:42:05.353Z,11.40
2023-12-30T07:44:38.794Z,9.30
2023-12-30T07:47:08.320Z,9.70
2023-12-30T07:49:36.822Z,9.50
2023-12-30T07:52:05.025Z,9.40
2023-12-30T07:54:32.620Z,8.90
2023-12-30T07:57:00.171Z,9.00
2023-12-30T07:59:27.801Z,9.00
2023-12-30T08:01:57.770Z,9.10
2023-12-30T08:04:25.944Z,8.80
2023-12-30T08:06:54.452Z,9.00
2023-12-30T08:09:24.237Z,9.50
2023-12-30T08:11:59.371Z,9.30
2023-12-30T08:14:30.657Z,8.80
2023-12-30T08:17:00.212Z,8.30
2023-12-30T08:19:28.060Z,8.70
2023-12-30T08:21:55.841Z,8.80
2023-12-30T08:24:23.432Z,9.30
2023-12-30T08:26:50.987Z,8.90
2023-12-30T08:29:18.585Z,9.40
2023-12-30T08:31:49.318Z,9.50
2023-12-30T08:34:17.085Z,9.60
2023-12-30T08:36:45.513Z,10.30
2023-12-30T08:39:13.862Z,9.20
2023-12-30T08:41:42.319Z,9.70
2023-12-30T08:44:10.227Z,9.90
2023-12-30T08:46:38.001Z,10.20
2023-12-30T08:49:08.534Z,9.70
2023-12-30T08:51:38.265Z,9.30
2023-12-30T08:54:05.837Z,9.70
2023-12-30T08:56:35.001Z,9.80
2023-12-30T08:59:03.171Z,9.90
2023-12-30T09:01:31.823Z,9.50
2023-12-30T09:04:01.433Z,10.70
2023-12-30T09:06:29.413Z,9.70
2023-12-30T09:08:57.723Z,10.20
2023-12-30T09:11:25.426Z,9.90
2023-12-30T09:13:53.535Z,10.70
2023-12-30T09:16:21.338Z,10.40
2023-12-30T09:18:49.181Z,10.10
2023-12-30T09:21:17.053Z,10.10
2023-12-30T09:23:44.610Z,10.00
2023-12-30T09:26:14.036Z,9.10
2023-12-30T09:28:41.865Z,10.90
2023-12-30T09:31:09.841Z,10.00
2023-12-30T09:33:37.583Z,11.00
2023-12-30T09:36:06.143Z,10.20
2023-12-30T09:38:33.685Z,10.10
2023-12-30T09:41:01.263Z,10.80
2023-12-30T09:43:29.150Z,11.30
2023-12-30T09:45:59.200Z,10.80
2023-12-30T09:48:28.887Z,11.10
2023-12-30T09:50:57.600Z,10.10
2023-12-30T09:53:26.241Z,11.30
2023-12-30T09:55:54.479Z,10.90
2023-12-30T09:58:22.778Z,11.80
2023-12-30T10:00:50.494Z,10.80
2023-12-30T10:03:19.780Z,10.90
2023-12-30T10:05:48.589Z,11.10
2023-12-30T10:08:16.666Z,10.70
2023-12-30T10:10:46.484Z,10.90
2023-12-30T10:13:15.447Z,11.10
2023-12-30T10:15:43.604Z,10.70
2023-12-30T10:18:11.833Z,10.40
2023-12-30T10:20:43.474Z,10.10
2023-12-30T10:23:11.183Z,9.40
2023-12-30T10:25:39.257Z,11.10
2023-12-30T10:28:07.203Z,10.80
2023-12-30T10:30:34.806Z,10.90
2023-12-30T10:33:13.161Z,11.40
2023-12-30T10:35:41.883Z,10.60
2023-12-30T10:38:10.143Z,10.10
2023-12-30T10:40:39.580Z,10.60
2023-12-30T10:43:07.961Z,10.70
2023-12-30T10:45:35.815Z,11.10
2023-12-30T10:48:03.666Z,10.90
2023-12-30T10:50:32.037Z,9.90
2023-12-30T10:53:24.609Z,11.50
2023-12-30T10:55:54.431Z,9.80
2023-12-30T10:58:24.086Z,10.20
2023-12-30T11:00:59.040Z,10.90
2023-12-30T11:03:26.928Z,11.20
2023-12-30T11:06:00.787Z,11.40
2023-12-30T11:08:29.110Z,10.10
2023-12-30T11:10:59.535Z,10.60
2023-12-30T11:13:27.142Z,10.80
2023-12-30T11:15:56.082Z,11.30
2023-12-30T11:18:45.757Z,10.80
2023-12-30T11:21:13.643Z,10.50
2023-12-30T11:23:41.239Z,11.00
2023-12-30T11:26:08.861Z,10.10
2023-12-30T11:28:38.657Z,9.60
2023-12-30T11:31:06.374Z,11.00
2023-12-30T11:33:34.094Z,10.10
2023-12-30T11:36:01.726Z,10.60
2023-12-30T11:38:32.577Z,10.90
2023-12-30T11:41:02.561Z,9.40
2023-12-30T11:43:30.410Z,9.30
2023-12-30T11:45:58.157Z,10.50
2023-12-30T11:48:25.888Z,10.30
2023-12-30T11:50:55.427Z,9.80
2023-12-30T11:53:23.149Z,10.20
2023-12-30T11:55:50.817Z,9.30
2023-12-30T11:58:18.535Z,9.50
2023-12-30T12:00:46.148Z,9.70
2023-12-30T12:03:13.740Z,9.80
2023-12-30T12:05:41.347Z,9.50
2023-12-30T12:08:12.620Z,9.00
2023-12-30T12:10:40.409Z,8.80
2023-12-30T12:13:10.866Z,9.60
2023-12-30T12:15:40.395Z,8.50
2023-12-30T12:18:09.274Z,9.40
2023-12-30T12:20:42.106Z,8.80
2023-12-30T12:23:10.196Z,8.80
2023-12-30T12:25:37.850Z,8.70
2023-12-30T12:28:12.186Z,9.00
2023-12-30T12:30:40.499Z,9.20
2023-12-30T12:33:08.934Z,10.60
2023-12-30T12:35:36.705Z,8.80
2023-12-30T12:38:04.627Z,9.50
2023-12-30T12:40:33.546Z,8.60
2023-12-30T12:43:01.349Z,9.10
2023-12-30T12:45:30.965Z,9.10
2023-12-30T12:47:58.997Z,9.10
2023-12-30T12:50:26.956Z,8.70
2023-12-30T12:52:54.508Z,10.20
2023-12-30T12:55:22.101Z,9.70
2023-12-30T12:57:49.721Z,8.90
2023-12-30T13:00:19.470Z,9.40
2023-12-30T13:02:47.105Z,10.10
2023-12-30T13:05:18.792Z,9.40
2023-12-30T13:07:47.784Z,10.30
2023-12-30T13:10:33.711Z,9.70
2023-12-30T13:13:02.230Z,10.90
2023-12-30T13:15:30.833Z,10.00
2023-12-30T13:18:00.901Z,9.00
2023-12-30T13:20:28.767Z,9.50
2023-12-30T13:22:59.239Z,9.50
2023-12-30T13:25:31.252Z,10.40
2023-12-30T13:27:59.381Z,10.40
2023-12-30T13:30:27.219Z,11.70
2023-12-30T13:32:59.033Z,13.50
2023-12-30T13:35:30.625Z,14.80
2023-12-30T13:37:58.164Z,14.00
2023-12-30T13:40:26.430Z,16.10
2023-12-30T13:42:55.988Z,14.80
2023-12-30T13:45:24.036Z,14.30
2023-12-30T13:47:51.729Z,12.30
2023-12-30T13:50:21.546Z,11.40
2023-12-30T13:52:51.870Z,11.80
2023-12-30T13:55:20.298Z,13.20
2023-12-30T13:57:53.967Z,13.20
2023-12-30T14:00:22.819Z,13.50
2023-12-30T14:02:54.152Z,15.20
2023-12-30T14:05:31.477Z,14.70
2023-12-30T14:08:16.053Z,17.00
2023-12-30T14:10:50.396Z,16.20
2023-12-30T14:13:20.048Z,16.50
2023-12-30T14:15:51.155Z,19.60
2023-12-30T14:18:18.926Z,21.50
2023-12-30T14:20:47.300Z,18.80
2023-12-30T14:23:15.034Z,17.80
2023-12-30T14:25:42.874Z,16.10
2023-12-30T14:28:11.357Z,16.00
2023-12-30T14:30:40.331Z,17.20
2023-12-30T14:33:08.988Z,17.70
2023-12-30T14:35:37.356Z,14.50
2023-12-30T14:38:06.093Z,13.80
2023-12-30T14:40:33.669Z,12.70
2023-12-30T14:43:01.536Z,12.60
2023-12-30T14:45:29.964Z,16.20
2023-12-30T14:47:58.010Z,17.70
2023-12-30T14:50:25.568Z,19.40
2023-12-30T14:52:53.301Z,16.10
2023-12-30T14:55:20.844Z,20.80
2023-12-30T14:57:50.256Z,16.30
2023-12-30T15:00:18.797Z,17.70
2023-12-30T15:02:46.590Z,15.70
2023-12-30T15:05:17.416Z,16.80
2023-12-30T15:07:45.833Z,15.10
2023-12-30T15:10:15.759Z,11.40
2023-12-30T15:12:45.804Z,10.50
2023-12-30T15:15:13.991Z,10.20
2023-12-30T15:17:41.629Z,10.80
2023-12-30T15:20:09.808Z,11.30
2023-12-30T15:22:39.066Z,15.60
2023-12-30T15:25:07.295Z,31.30
2023-12-30T15:27:34.893Z,15.50
2023-12-30T15:30:02.438Z,10.40
2023-12-30T15:32:30.556Z,8.20
2023-12-30T15:34:59.543Z,9.20
2023-12-30T15:37:27.468Z,9.60
2023-12-30T15:39:55.107Z,10.20
2023-12-30T15:42:22.694Z,9.80
2023-12-30T15:44:50.250Z,10.00
2023-12-30T15:47:17.948Z,10.20
2023-12-30T15:49:45.621Z,9.40
2023-12-30T15:52:13.601Z,10.30
2023-12-30T15:54:41.159Z,9.20
2023-12-30T15:57:08.802Z,9.30
2023-12-30T15:59:36.397Z,9.60
2023-12-30T16:02:04.238Z,9.60
2023-12-30T16:04:31.921Z,10.00
2023-12-30T16:06:59.596Z,9.80
2023-12-30T16:09:27.169Z,10.30
2023-12-30T16:11:54.967Z,10.40
2023-12-30T16:14:22.521Z,9.80
2023-12-30T16:16:50.104Z,11.40
2023-12-30T16:19:19.108Z,10.50
2023-12-30T16:21:49.035Z,10.50
2023-12-30T16:24:18.503Z,11.50
2023-12-30T16:26:46.237Z,12.30
2023-12-30T16:29:13.951Z,11.80
2023-12-30T16:31:41.511Z,11.90
2023-12-30T16:34:09.343Z,10.80
2023-12-30T16:36:37.144Z,10.20
2023-12-30T16:39:04.997Z,11.30
2023-12-30T16:41:32.616Z,10.70
2023-12-30T16:44:00.719Z,11.80
2023-12-30T16:46:28.264Z,11.20
2023-12-30T16:48:55.901Z,11.50
2023-12-30T16:51:23.504Z,10.90
2023-12-30T16:53:51.190Z,11.30
2023-12-30T16:56:19.640Z,10.20
2023-12-30T16:58:47.483Z,10.50
2023-12-30T17:01:15.498Z,10.50
2023-12-30T17:03:43.902Z,10.90
2023-12-30T17:06:12.299Z,11.00
2023-12-30T17:08:39.816Z,11.30
2023-12-30T17:11:07.425Z,11.70
2023-12-30T17:13:39.603Z,12.70
2023-12-30T17:16:14.078Z,10.40
2023-12-30T17:18:41.788Z,11.50
2023-12-30T17:21:09.411Z,11.50
2023-12-30T17:23:37.129Z,11.50
2023-12-30T17:26:05.199Z,12.00
2023-12-30T17:28:32.928Z,12.40
2023-12-30T17:31:01.350Z,13.40
2023-12-30T17:33:29.092Z,12.70
2023-12-30T17:35:56.637Z,13.40
2023-12-30T17:38:24.461Z,11.70
2023-12-30T17:40:52.134Z,12.30
2023-12-30T17:43:19.850Z,12.80
2023-12-30T17:45:47.560Z,13.60
2023-12-30T17:48:16.030Z,13.10
2023-12-30T17:50:46.474Z,13.50
2023-12-30T17:53:14.323Z,12.40
2023-12-30T17:55:42.268Z,12.00
2023-12-30T17:58:10.075Z,13.20
2023-12-30T18:00:37.827Z,12.90
2023-12-30T18:03:07.684Z,11.60
2023-12-30T18:05:35.473Z,12.00
2023-12-30T18:08:03.177Z,11.90
2023-12-30T18:10:30.938Z,11.90
2023-12-30T18:12:58.490Z,12.70
2023-12-30T18:15:26.839Z,11.40
2023-12-30T18:17:54.538Z,13.10
2023-12-30T18:20:25.787Z,12.00
2023-12-30T18:22:53.567Z,11.50
2023-12-30T18:25:21.183Z,12.00
2023-12-30T18:27:48.730Z,13.00
2023-12-30T18:30:16.630Z,12.10
2023-12-30T18:32:44.406Z,11.60
2023-12-30T18:35:12.559Z,11.60
2023-12-30T18:37:41.476Z,10.50
2023-12-30T18:40:12.173Z,11.80
2023-12-30T18:42:40.358Z,12.20
2023-12-30T18:45:08.742Z,11.40
2023-12-30T18:47:36.469Z,11.80
2023-12-30T18:50:05.154Z,12.00
2023-12-30T18:52:33.215Z,13.00
2023-12-30T18:55:01.078Z,12.60
2023-12-30T18:57:28.876Z,12.70
2023-12-30T18:59:57.331Z,12.10
2023-12-30T19:02:24.945Z,11.10
2023-12-30T19:04:52.638Z,10.20
2023-12-30T19:07:20.480Z,10.70
2023-12-30T19:09:48.532Z,12.90
2023-12-30T19:12:16.268Z,12.30
2023-12-30T19:14:43.994Z,12.70
2023-12-30T19:17:11.844Z,11.80
2023-12-30T19:19:40.041Z,11.20
2023-12-30T19:22:08.749Z,11.80
2023-12-30T19:24:37.979Z,11.50
2023-12-30T19:27:06.026Z,11.50
2023-12-30T19:29:33.660Z,13.30
2023-12-30T19:32:01.310Z,11.90
2023-12-30T19:34:29.278Z,13.30
2023-12-30T19:36:57.360Z,13.20
2023-12-30T19:39:25.152Z,12.90
2023-12-30T19:41:52.729Z,13.00
2023-12-30T19:44:20.738Z,12.60
2023-12-30T19:46:48.805Z,14.70
2023-12-30T19:49:17.054Z,12.90
2023-12-30T19:51:45.223Z,15.60
2023-12-30T19:54:13.562Z,15.10
2023-12-30T19:56:41.661Z,14.00
2023-12-30T19:59:10.305Z,13.00
2023-12-30T20:01:38.055Z,11.30
2023-12-30T20:04:05.854Z,11.70
2023-12-30T20:06:34.649Z,10.70
2023-12-30T20:09:02.246Z,11.20
2023-12-30T20:11:29.903Z,10.60
2023-12-30T20:13:57.583Z,11.20
2023-12-30T20:16:25.319Z,11.30
2023-12-30T20:18:53.146Z,11.60
2023-12-30T20:21:21.807Z,12.80
2023-12-30T20:23:49.586Z,11.20
2023-12-30T20:26:17.272Z,12.10
2023-12-30T20:28:45.012Z,12.60
2023-12-30T20:31:12.849Z,11.20
2023-12-30T20:33:40.587Z,11.30
2023-12-30T20:36:09.373Z,11.50
2023-12-30T20:38:40.338Z,11.60
2023-12-30T20:41:07.993Z,11.40
2023-12-30T20:43:35.690Z,11.20
2023-12-30T20:46:08.830Z,12.10
2023-12-30T20:48:39.775Z,10.60
2023-12-30T20:51:09.042Z,11.70
2023-12-30T20:53:36.565Z,11.00
2023-12-30T20:56:04.498Z,11.10
2023-12-30T20:58:32.104Z,11.90
2023-12-30T21:01:00.029Z,10.20
2023-12-30T21:03:30.205Z,13.20
2023-12-30T21:05:58.173Z,10.60
2023-12-30T21:08:25.733Z,10.40
2023-12-30T21:10:53.342Z,10.20
2023-12-30T21:13:21.197Z,9.80
2023-12-30T21:15:49.513Z,10.00
2023-12-30T21:18:17.158Z,9.40
2023-12-30T21:20:44.806Z,10.10
2023-12-30T21:23:12.342Z,9.50
2023-12-30T21:25:40.052Z,9.00
2023-12-30T21:28:08.135Z,9.00
2023-12-30T21:30:35.811Z,9.20
2023-12-30T21:33:03.803Z,8.50
2023-12-30T21:35:31.464Z,8.30
2023-12-30T21:37:59.059Z,8.70
2023-12-30T21:40:28.408Z,8.70
2023-12-30T21:42:56.007Z,8.70
2023-12-30T21:45:23.546Z,8.10
2023-12-30T21:47:51.508Z,9.00
2023-12-30T21:50:19.213Z,9.20
2023-12-30T21:52:47.487Z,9.60
2023-12-30T21:55:15.091Z,10.30
2023-12-30T21:57:42.691Z,9.70
2023-12-30T22:00:12.231Z,9.50
2023-12-30T22:02:40.327Z,9.50
2023-12-30T22:05:08.919Z,10.00
2023-12-30T22:07:36.525Z,9.50
2023-12-30T22:10:04.489Z,9.00
2023-12-30T22:12:33.617Z,8.60
2023-12-30T22:15:01.226Z,8.40
2023-12-30T22:17:29.106Z,9.30
2023-12-30T22:19:57.645Z,9.70
2023-12-30T22:22:25.253Z,9.20
2023-12-30T22:24:52.963Z,8.90
2023-12-30T22:27:23.550Z,8.90
2023-12-30T22:29:51.067Z,8.80
2023-12-30T22:32:18.709Z,8.80
2023-12-30T22:34:46.342Z,9.10
2023-12-30T22:37:14.016Z,8.10
2023-12-30T22:39:41.591Z,7.60
2023-12-30T22:42:09.122Z,8.60
2023-12-30T22:44:38.746Z,8.00
2023-12-30T22:47:06.983Z,8.00
2023-12-30T22:49:34.600Z,7.80
2023-12-30T22:52:02.210Z,7.70
2023-12-30T22:54:30.061Z,5.90
2023-12-30T22:56:57.649Z,7.00
2023-12-30T22:59:25.190Z,7.60
2023-12-30T23:01:52.769Z,7.40
2023-12-30T23:04:20.356Z,7.40
2023-12-30T23:06:49.036Z,6.60
2023-12-30T23:09:16.922Z,6.10
2023-12-30T23:11:44.528Z,6.70
2023-12-30T23:14:12.061Z,7.20
2023-12-30T23:16:39.737Z,7.30
2023-12-30T23:19:08.113Z,7.20
2023-12-30T23:21:35.883Z,6.70
2023-12-30T23:24:05.255Z,5.80
2023-12-30T23:26:32.790Z,6.30
2023-12-30T23:29:00.339Z,6.50
2023-12-30T23:31:27.956Z,7.60
2023-12-30T23:33:55.561Z,6.40
2023-12-30T23:36:23.299Z,6.90
2023-12-30T23:38:50.937Z,7.00
2023-12-30T23:41:18.526Z,6.80
2023-12-30T23:43:46.178Z,7.00
2023-12-30T23:46:14.014Z,7.40
2023-12-30T23:48:41.675Z,6.40
2023-12-30T23:51:09.222Z,6.80
2023-12-30T23:53:37.411Z,7.00
2023-12-30T23:56:05.405Z,6.50
2023-12-30T23:58:33.121Z,6.60
